Time;durP1;ratioP1;P1;durP2;ratioP2;P2;SDS_P1;SDS_P2;PMS_P1;PMS_P2;Temp;Humidity;BMP_temperature;BMP_pressure;BME280_temperature;BME280_humidity;BME280_pressure;Samples;Min_cycle;Max_cycle;Signal;HPM_P1;HPM_P2
2023/08/26 00:00:56;;;;;;;32.97;29.57;;;24.50;99.90;;;;;;5070523;28;20953;-79
2023/08/26 00:03:23;;;;;;;22.90;20.70;;;24.50;99.90;;;;;;5076206;28;20476;-79
2023/08/26 00:05:50;;;;;;;27.80;24.87;;;24.60;99.90;;;;;;5076506;28;20481;-79
2023/08/26 00:08:17;;;;;;;18.97;17.27;;;24.60;99.90;;;;;;5076967;28;20477;-80
2023/08/26 00:10:45;;;;;;;15.47;14.17;;;24.60;99.90;;;;;;5076408;28;20802;-79
2023/08/26 00:13:13;;;;;;;18.47;16.77;;;24.70;99.90;;;;;;5076433;28;20466;-78
2023/08/26 00:15:40;;;;;;;17.77;15.93;;;24.60;99.90;;;;;;5075827;28;20520;-79
2023/08/26 00:18:08;;;;;;;17.97;16.43;;;24.60;99.90;;;;;;5059854;28;20517;-79
2023/08/26 00:20:35;;;;;;;11.23;10.27;;;24.50;99.90;;;;;;5055644;28;20481;-79
2023/08/26 00:23:03;;;;;;;12.63;11.50;;;24.50;99.90;;;;;;5056088;28;20473;-79
2023/08/26 00:25:29;;;;;;;10.10;9.20;;;24.50;99.90;;;;;;5061826;28;20481;-79
2023/08/26 00:27:58;;;;;;;7.00;6.27;;;24.60;99.90;;;;;;5076200;28;20485;-78
2023/08/26 00:30:25;;;;;;;12.43;11.23;;;24.60;99.90;;;;;;5075917;28;20497;-79
2023/08/26 00:32:52;;;;;;;8.73;7.97;;;24.60;99.90;;;;;;5076593;28;20568;-80
2023/08/26 00:35:19;;;;;;;25.57;22.90;;;24.50;99.90;;;;;;5076014;28;20474;-79
2023/08/26 00:37:47;;;;;;;18.43;15.97;;;24.50;99.90;;;;;;5075472;28;20802;-80
2023/08/26 00:40:14;;;;;;;9.10;8.30;;;24.50;99.90;;;;;;5075469;28;20563;-79
2023/08/26 00:42:43;;;;;;;3.20;3.00;;;24.50;99.90;;;;;;5075445;28;20478;-79
2023/08/26 00:45:14;;;;;;;2.77;2.53;;;24.50;99.90;;;;;;5076099;28;20505;-79
2023/08/26 00:47:41;;;;;;;3.40;2.77;;;24.40;99.90;;;;;;5075133;28;20470;-80
2023/08/26 00:50:09;;;;;;;2.73;2.50;;;24.30;99.90;;;;;;5073909;28;20980;-80
2023/08/26 00:52:36;;;;;;;2.80;2.60;;;24.30;99.90;;;;;;5075551;28;20476;-80
2023/08/26 00:55:06;;;;;;;3.00;2.80;;;24.20;99.90;;;;;;5075793;28;20470;-78
2023/08/26 00:57:33;;;;;;;2.33;2.07;;;24.20;99.90;;;;;;5075144;28;20461;-80
2023/08/26 01:00:00;;;;;;;3.53;3.03;;;24.10;99.90;;;;;;5075835;28;20465;-79
2023/08/26 01:02:28;;;;;;;2.50;2.30;;;24.00;99.90;;;;;;5074831;28;20940;-79
2023/08/26 01:04:56;;;;;;;5.43;3.00;;;24.00;99.90;;;;;;5075355;28;20470;-79
2023/08/26 01:07:23;;;;;;;2.80;2.60;;;23.90;99.90;;;;;;5075265;28;20948;-79
2023/08/26 01:09:51;;;;;;;2.60;2.33;;;23.90;99.90;;;;;;5074951;28;20531;-79
2023/08/26 01:12:34;;;;;;;3.03;2.83;;;23.90;99.90;;;;;;5075603;28;20467;-79
2023/08/26 01:15:07;;;;;;;2.43;2.23;;;23.80;99.90;;;;;;5075981;28;20948;-79
2023/08/26 01:17:36;;;;;;;5.33;2.70;;;23.80;99.90;;;;;;5075159;28;20912;-79
2023/08/26 01:20:06;;;;;;;2.70;2.50;;;23.70;99.90;;;;;;5075226;28;20961;-80
2023/08/26 01:22:36;;;;;;;2.77;2.57;;;23.70;99.90;;;;;;5075047;28;20717;-81
2023/08/26 01:25:05;;;;;;;3.23;2.40;;;23.60;99.90;;;;;;5075072;28;20470;-81
2023/08/26 01:27:32;;;;;;;2.93;2.37;;;23.60;99.90;;;;;;5074615;28;20454;-78
2023/08/26 01:29:59;;;;;;;2.77;2.57;;;23.50;99.90;;;;;;5075124;28;20470;-79
2023/08/26 01:32:34;;;;;;;3.40;2.87;;;23.50;99.90;;;;;;5074464;28;20916;-80
2023/08/26 01:35:06;;;;;;;12.33;9.50;;;23.50;99.90;;;;;;5071252;28;20535;-79
2023/08/26 01:37:35;;;;;;;4.20;3.30;;;23.40;99.90;;;;;;5073880;28;20466;-78
2023/08/26 01:40:06;;;;;;;3.23;2.93;;;23.40;99.90;;;;;;5073516;28;20960;-79
2023/08/26 01:42:35;;;;;;;4.53;2.70;;;23.40;99.90;;;;;;5073461;28;20450;-79
2023/08/26 01:45:02;;;;;;;2.87;2.67;;;23.40;99.90;;;;;;5074264;28;20470;-78
2023/08/26 01:47:29;;;;;;;35.50;31.80;;;23.40;99.90;;;;;;5074892;28;20467;-79
2023/08/26 01:50:10;;;;;;;12.47;8.47;;;23.40;99.90;;;;;;5074172;28;20485;-80
2023/08/26 01:52:40;;;;;;;2.70;2.50;;;23.40;99.90;;;;;;5073177;28;20454;-80
2023/08/26 01:55:55;;;;;;;27.67;24.77;;;23.30;99.90;;;;;;5056452;28;20562;-80
2023/08/26 01:59:12;;;;;;;22.90;20.53;;;23.30;99.90;;;;;;5045490;28;20471;-79
2023/08/26 02:04:48;;;;;;;3.00;2.70;;;23.30;99.90;;;;;;4992195;28;20537;-79
2023/08/26 02:07:36;;;;;;;2.93;2.63;;;23.30;99.90;;;;;;5013067;28;20842;-79
2023/08/26 02:10:22;;;;;;;2.10;2.00;;;23.20;99.90;;;;;;5011726;28;20935;-79
2023/08/26 02:16:07;;;;;;;4.40;3.37;;;23.20;99.90;;;;;;5070250;28;20469;-78
2023/08/26 02:18:47;;;;;;;3.10;2.67;;;23.20;99.90;;;;;;5056057;28;20563;-79
2023/08/26 02:21:14;;;;;;;3.07;2.83;;;23.10;99.90;;;;;;5067752;28;20471;-80
2023/08/26 02:23:55;;;;;;;2.63;2.43;;;23.10;99.90;;;;;;5072860;28;20454;-80
2023/08/26 02:26:37;;;;;;;4.23;3.33;;;23.10;99.90;;;;;;5051844;28;20504;-80
2023/08/26 02:29:13;;;;;;;3.33;2.30;;;23.10;99.90;;;;;;5047268;28;20471;-80
2023/08/26 02:31:44;;;;;;;2.20;2.10;;;23.10;99.90;;;;;;5064850;28;20466;-80
2023/08/26 02:34:52;;;;;;;4.43;3.10;;;23.10;99.90;;;;;;5072992;28;20485;-80
2023/08/26 02:37:21;;;;;;;3.50;3.20;;;23.00;99.90;;;;;;5065147;28;20515;-79
2023/08/26 02:39:48;;;;;;;3.57;3.27;;;23.00;99.90;;;;;;5073304;28;20486;-80
2023/08/26 02:42:15;;;;;;;3.77;3.33;;;23.00;99.90;;;;;;5073635;28;20470;-80
2023/08/26 02:44:42;;;;;;;3.10;2.90;;;22.90;99.90;;;;;;5074072;28;20474;-79
2023/08/26 02:47:09;;;;;;;5.23;4.80;;;22.90;99.90;;;;;;5073560;28;21017;-79
2023/08/26 02:49:36;;;;;;;6.37;3.80;;;22.90;99.90;;;;;;5074303;28;20467;-80
2023/08/26 02:52:03;;;;;;;4.30;3.03;;;22.90;99.90;;;;;;5073404;28;20470;-80
2023/08/26 02:54:31;;;;;;;4.13;3.67;;;22.80;99.90;;;;;;5074015;28;20542;-78
2023/08/26 02:57:00;;;;;;;3.30;2.90;;;22.80;99.90;;;;;;5074000;28;20463;-80
2023/08/26 02:59:29;;;;;;;3.37;3.07;;;22.80;99.90;;;;;;5074039;28;20466;-80
2023/08/26 03:02:02;;;;;;;2.93;2.73;;;22.80;99.90;;;;;;5073596;28;20546;-80
2023/08/26 03:04:29;;;;;;;4.17;3.37;;;22.80;99.90;;;;;;5073672;28;20462;-79
2023/08/26 03:06:56;;;;;;;2.60;2.37;;;22.80;99.90;;;;;;5073832;28;20477;-79
2023/08/26 03:09:23;;;;;;;3.13;2.80;;;22.80;99.90;;;;;;5073547;28;20986;-80
2023/08/26 03:11:51;;;;;;;3.33;3.03;;;22.80;99.90;;;;;;5072829;28;20470;-80
2023/08/26 03:14:19;;;;;;;3.83;3.37;;;22.70;99.90;;;;;;5072863;28;20466;-78
2023/08/26 03:16:46;;;;;;;3.23;2.93;;;22.70;99.90;;;;;;5049109;28;20471;-77
2023/08/26 03:19:13;;;;;;;3.97;3.10;;;22.70;99.90;;;;;;5070444;28;20516;-79
2023/08/26 03:21:40;;;;;;;3.47;3.17;;;22.70;99.90;;;;;;5073410;28;20531;-78
2023/08/26 03:24:07;;;;;;;4.23;3.10;;;22.70;99.90;;;;;;5073497;28;20470;-78
2023/08/26 03:26:34;;;;;;;2.60;2.47;;;22.70;99.90;;;;;;5045932;28;20466;-79
2023/08/26 03:29:03;;;;;;;3.20;2.90;;;22.70;99.90;;;;;;5073558;28;20580;-79
2023/08/26 03:31:30;;;;;;;3.97;2.87;;;22.60;99.90;;;;;;5073078;28;20523;-80
2023/08/26 03:33:58;;;;;;;5.00;3.07;;;22.60;99.90;;;;;;5073544;28;20470;-79
2023/08/26 03:36:25;;;;;;;6.23;3.30;;;22.70;99.90;;;;;;5072777;28;20553;-80
2023/08/26 03:38:52;;;;;;;4.87;3.30;;;22.60;99.90;;;;;;5073154;28;20462;-79
2023/08/26 03:41:19;;;;;;;3.43;2.93;;;22.60;99.90;;;;;;5072656;28;20470;-80
2023/08/26 03:43:46;;;;;;;4.80;4.23;;;22.60;99.90;;;;;;5073672;28;20462;-80
2023/08/26 03:46:15;;;;;;;2.97;2.77;;;22.60;99.90;;;;;;5073360;28;20477;-80
2023/08/26 03:48:42;;;;;;;4.53;3.37;;;22.60;99.90;;;;;;5073522;28;20466;-78
2023/08/26 03:51:09;;;;;;;3.20;3.00;;;22.60;99.90;;;;;;5073414;28;20963;-78
2023/08/26 03:53:36;;;;;;;6.70;3.40;;;22.60;99.90;;;;;;5072979;28;20470;-78
2023/08/26 03:56:04;;;;;;;3.20;3.00;;;22.60;99.90;;;;;;5073625;28;20481;-79
2023/08/26 03:58:31;;;;;;;4.00;3.47;;;22.60;99.90;;;;;;5072875;28;20575;-78
2023/08/26 04:01:05;;;;;;;3.53;3.23;;;22.60;99.90;;;;;;5071969;28;20949;-79
2023/08/26 04:07:03;;;;;;;3.50;3.20;;;22.60;99.90;;;;;;5026518;28;20477;-79
2023/08/26 04:10:25;;;;;;;3.60;3.30;;;22.50;99.90;;;;;;5047898;28;20479;-80
2023/08/26 04:16:28;;;;;;;3.70;3.40;;;22.50;99.90;;;;;;5040675;28;20503;-79
2023/08/26 04:19:16;;;;;;;3.40;2.90;;;22.40;99.90;;;;;;5037934;28;20483;-79
2023/08/26 04:22:18;;;;;;;3.23;2.93;;;22.40;99.90;;;;;;5051817;28;21027;-79
2023/08/26 04:24:45;;;;;;;3.93;3.23;;;22.40;99.90;;;;;;5071495;28;20780;-78
2023/08/26 04:27:12;;;;;;;4.80;3.97;;;22.30;99.90;;;;;;5073712;28;20462;-79
2023/08/26 04:29:39;;;;;;;3.80;3.50;;;22.40;99.90;;;;;;5074117;28;20915;-78
2023/08/26 04:32:09;;;;;;;4.20;3.90;;;22.30;99.90;;;;;;5073151;28;20815;-81
2023/08/26 04:34:37;;;;;;;3.63;3.33;;;22.30;99.90;;;;;;5073150;28;20784;-79
2023/08/26 04:37:05;;;;;;;4.83;4.43;;;22.30;99.90;;;;;;5073334;28;20577;-80
2023/08/26 04:39:37;;;;;;;3.87;3.60;;;22.30;99.90;;;;;;5072827;28;20508;-78
2023/08/26 04:42:04;;;;;;;4.03;3.27;;;22.30;99.90;;;;;;5072672;28;20458;-81
2023/08/26 04:44:33;;;;;;;3.97;3.60;;;22.30;99.90;;;;;;5072970;28;20471;-79
2023/08/26 04:47:00;;;;;;;4.90;4.17;;;22.30;99.90;;;;;;5075509;28;20872;-78
2023/08/26 04:49:31;;;;;;;4.50;4.10;;;22.30;99.90;;;;;;5076845;28;20470;-78
2023/08/26 04:52:00;;;;;;;4.30;3.90;;;22.30;99.90;;;;;;5075655;28;20450;-78
2023/08/26 04:54:26;;;;;;;8.33;4.20;;;22.30;99.90;;;;;;5076932;28;20520;-79
2023/08/26 04:56:53;;;;;;;4.93;3.90;;;22.30;99.90;;;;;;5075946;28;20532;-78
2023/08/26 04:59:21;;;;;;;4.20;3.83;;;22.30;99.90;;;;;;5076467;28;20532;-79
2023/08/26 05:01:48;;;;;;;4.53;4.17;;;22.30;99.90;;;;;;5075518;28;20524;-79
2023/08/26 05:04:14;;;;;;;3.50;3.30;;;22.30;99.90;;;;;;5076684;28;20633;-80
2023/08/26 05:06:42;;;;;;;5.23;3.93;;;22.30;99.90;;;;;;5076423;28;20470;-80
2023/08/26 05:09:11;;;;;;;4.93;4.43;;;22.30;99.90;;;;;;5075645;28;20482;-79
2023/08/26 05:11:38;;;;;;;4.13;3.83;;;22.30;99.90;;;;;;5075952;28;20947;-79
2023/08/26 05:14:06;;;;;;;4.53;3.83;;;22.30;99.90;;;;;;5075032;28;20475;-79
2023/08/26 05:16:33;;;;;;;3.70;3.40;;;22.30;99.90;;;;;;5076170;28;20520;-79
2023/08/26 05:19:00;;;;;;;3.83;3.53;;;22.30;99.90;;;;;;5075501;28;20498;-79
2023/08/26 05:21:27;;;;;;;4.20;3.80;;;22.30;99.90;;;;;;5076581;28;20835;-79
2023/08/26 05:23:53;;;;;;;4.13;3.70;;;22.30;99.90;;;;;;5075028;28;20532;-79
2023/08/26 05:26:24;;;;;;;4.40;4.00;;;22.30;99.90;;;;;;5075874;28;20532;-79
2023/08/26 05:28:50;;;;;;;6.00;4.90;;;22.30;99.90;;;;;;5075325;28;20458;-79
2023/08/26 05:31:17;;;;;;;4.83;4.43;;;22.40;99.90;;;;;;5075558;28;21024;-79
2023/08/26 05:33:44;;;;;;;5.60;5.00;;;22.40;99.90;;;;;;5075440;28;20470;-79
2023/08/26 05:36:11;;;;;;;4.07;3.77;;;22.40;99.90;;;;;;5074842;28;20512;-79
2023/08/26 05:38:40;;;;;;;6.00;5.40;;;22.40;99.90;;;;;;5074858;28;20486;-78
2023/08/26 05:41:16;;;;;;;5.40;4.27;;;22.40;99.90;;;;;;5074295;28;20473;-78
2023/08/26 05:43:45;;;;;;;4.20;3.90;;;22.40;99.90;;;;;;5074800;28;20474;-78
2023/08/26 05:46:12;;;;;;;4.40;4.00;;;22.40;99.90;;;;;;5074888;28;20844;-79
2023/08/26 05:48:39;;;;;;;5.17;4.77;;;22.40;99.90;;;;;;5075343;28;20795;-79
2023/08/26 05:51:06;;;;;;;6.20;4.40;;;22.50;99.90;;;;;;5075106;28;20532;-79
2023/08/26 05:53:33;;;;;;;4.20;3.87;;;22.40;99.90;;;;;;5075353;28;20508;-79
2023/08/26 05:56:00;;;;;;;5.30;4.90;;;22.50;99.90;;;;;;5075124;28;20547;-79
2023/08/26 05:58:27;;;;;;;4.97;4.57;;;22.50;99.90;;;;;;5075474;28;20474;-79
2023/08/26 06:00:55;;;;;;;5.27;4.77;;;22.50;99.90;;;;;;5075115;28;20478;-78
2023/08/26 06:03:22;;;;;;;5.23;4.73;;;22.60;99.90;;;;;;5074372;28;20559;-79
2023/08/26 06:05:50;;;;;;;5.57;5.00;;;22.60;99.90;;;;;;5074871;28;20500;-78
2023/08/26 06:08:16;;;;;;;6.40;4.80;;;22.60;99.90;;;;;;5073786;28;20500;-79
2023/08/26 06:10:43;;;;;;;5.33;4.90;;;22.60;99.90;;;;;;5074983;28;20952;-78
2023/08/26 06:13:10;;;;;;;5.20;4.80;;;22.70;99.90;;;;;;5074545;28;20481;-79
2023/08/26 06:15:38;;;;;;;5.43;4.83;;;22.70;99.90;;;;;;5074685;28;20528;-78
2023/08/26 06:18:06;;;;;;;5.83;4.90;;;22.70;99.90;;;;;;5074430;28;20545;-78
2023/08/26 06:20:33;;;;;;;5.37;4.77;;;22.70;99.90;;;;;;5075248;28;20469;-79
2023/08/26 06:23:02;;;;;;;5.30;4.80;;;22.70;99.90;;;;;;5074086;28;20474;-78
2023/08/26 06:25:29;;;;;;;5.77;5.27;;;22.70;99.90;;;;;;5074733;28;20501;-79
2023/08/26 06:27:56;;;;;;;7.17;5.43;;;22.70;99.90;;;;;;5074625;28;20466;-78
2023/08/26 06:30:23;;;;;;;7.07;4.97;;;22.70;99.90;;;;;;5073207;28;20474;-79
2023/08/26 06:32:50;;;;;;;5.70;5.23;;;22.70;99.90;;;;;;5074689;28;20470;-80
2023/08/26 06:35:18;;;;;;;5.20;4.80;;;22.70;99.90;;;;;;5074183;28;20497;-80
2023/08/26 06:37:45;;;;;;;4.90;4.57;;;22.70;99.90;;;;;;5074050;28;20535;-79
2023/08/26 06:40:12;;;;;;;8.67;5.80;;;22.80;99.90;;;;;;5073885;28;20863;-79
2023/08/26 06:42:39;;;;;;;6.03;5.10;;;22.80;99.90;;;;;;5073870;28;20819;-79
2023/08/26 06:45:08;;;;;;;10.20;7.03;;;22.80;99.90;;;;;;5073832;28;20474;-79
2023/08/26 06:47:39;;;;;;;6.30;5.67;;;22.80;99.90;;;;;;5074489;28;20768;-80
2023/08/26 06:50:10;;;;;;;6.33;5.83;;;22.90;99.90;;;;;;5061454;28;20524;-79
2023/08/26 06:52:39;;;;;;;7.97;5.90;;;22.80;99.90;;;;;;5057314;28;20500;-79
2023/08/26 06:55:08;;;;;;;6.00;5.50;;;22.90;99.90;;;;;;5065287;28;20500;-79
2023/08/26 06:57:35;;;;;;;6.37;5.87;;;22.90;99.90;;;;;;5074359;28;20460;-80
2023/08/26 07:00:03;;;;;;;5.97;5.57;;;22.90;99.90;;;;;;5073223;28;20536;-80
2023/08/26 07:02:30;;;;;;;6.50;5.97;;;22.90;99.90;;;;;;5074077;28;20766;-80
2023/08/26 07:04:57;;;;;;;6.50;5.90;;;22.90;99.90;;;;;;5073338;28;20467;-79
2023/08/26 07:07:24;;;;;;;6.10;5.60;;;22.90;99.90;;;;;;5073509;28;20512;-79
2023/08/26 07:09:53;;;;;;;7.13;6.03;;;22.90;99.90;;;;;;5072898;28;20470;-79
2023/08/26 07:12:20;;;;;;;6.20;5.50;;;22.90;99.90;;;;;;5073872;28;20485;-79
2023/08/26 07:14:47;;;;;;;6.03;5.53;;;22.90;99.90;;;;;;5073649;28;20470;-79
2023/08/26 07:17:17;;;;;;;5.50;5.03;;;23.00;99.90;;;;;;5073341;28;20457;-79
2023/08/26 07:19:43;;;;;;;7.17;5.93;;;23.00;99.90;;;;;;5073750;28;20467;-79
2023/08/26 07:22:10;;;;;;;5.83;5.33;;;23.00;99.90;;;;;;5072546;28;20497;-79
2023/08/26 07:24:38;;;;;;;7.27;6.03;;;23.00;99.90;;;;;;5073379;28;20474;-79
2023/08/26 07:27:06;;;;;;;7.33;6.23;;;23.00;99.90;;;;;;5073558;28;20470;-79
2023/08/26 07:29:35;;;;;;;5.40;5.00;;;23.10;99.90;;;;;;5073453;28;20950;-78
2023/08/26 07:32:02;;;;;;;6.50;5.90;;;23.10;99.90;;;;;;5073326;28;20534;-78
2023/08/26 07:34:29;;;;;;;6.90;6.23;;;23.10;99.90;;;;;;5073550;28;20470;-79
2023/08/26 07:36:56;;;;;;;6.70;6.20;;;23.20;99.90;;;;;;5072685;28;20471;-79
2023/08/26 07:39:27;;;;;;;6.90;6.40;;;23.30;99.90;;;;;;5073305;28;20474;-79
2023/08/26 07:41:54;;;;;;;8.60;7.83;;;23.30;99.90;;;;;;5073069;28;20479;-79
2023/08/26 07:44:22;;;;;;;7.90;7.10;;;23.30;99.90;;;;;;5073102;28;20458;-79
2023/08/26 07:46:51;;;;;;;10.20;7.20;;;23.30;99.90;;;;;;5073264;28;20473;-79
2023/08/26 07:49:18;;;;;;;10.33;6.13;;;23.30;99.90;;;;;;5072329;28;20761;-78
2023/08/26 07:51:45;;;;;;;7.10;5.70;;;23.30;99.90;;;;;;5073353;28;20468;-78
2023/08/26 07:54:12;;;;;;;5.87;5.47;;;23.30;99.90;;;;;;5072650;28;20563;-79
2023/08/26 07:56:39;;;;;;;7.03;6.43;;;23.30;99.90;;;;;;5073163;28;20470;-79
2023/08/26 07:59:07;;;;;;;5.93;5.53;;;23.30;99.90;;;;;;5072380;28;20477;-79
2023/08/26 08:01:35;;;;;;;6.53;5.93;;;23.30;99.90;;;;;;5073243;28;20469;-79
2023/08/26 08:04:02;;;;;;;6.17;5.60;;;23.30;99.90;;;;;;5071359;28;20496;-78
2023/08/26 08:06:29;;;;;;;7.00;5.90;;;23.40;99.90;;;;;;5073169;28;20474;-79
2023/08/26 08:08:56;;;;;;;7.33;6.63;;;23.30;99.90;;;;;;5072698;28;20466;-79
2023/08/26 08:11:23;;;;;;;6.67;6.07;;;23.30;99.90;;;;;;5073011;28;20462;-79
2023/08/26 08:13:50;;;;;;;7.83;7.03;;;23.30;99.90;;;;;;5073375;28;20470;-78
2023/08/26 08:16:17;;;;;;;8.73;7.93;;;23.40;99.90;;;;;;5073234;28;20490;-79
2023/08/26 08:18:46;;;;;;;7.93;7.20;;;23.40;99.90;;;;;;5073209;28;20520;-79
2023/08/26 08:21:13;;;;;;;8.70;7.00;;;23.40;99.90;;;;;;5074608;28;20470;-79
2023/08/26 08:23:43;;;;;;;8.20;7.03;;;23.40;99.90;;;;;;5076062;28;20846;-79
2023/08/26 08:26:11;;;;;;;7.13;6.63;;;23.40;99.90;;;;;;5076634;28;20482;-79
2023/08/26 08:28:38;;;;;;;11.60;9.03;;;23.50;99.90;;;;;;5076621;28;20471;-79
2023/08/26 08:31:07;;;;;;;9.63;8.83;;;23.50;99.90;;;;;;5076256;28;20803;-79
2023/08/26 08:33:35;;;;;;;9.30;7.90;;;23.50;99.90;;;;;;5076629;28;20799;-80
2023/08/26 08:36:03;;;;;;;8.30;7.70;;;23.50;99.90;;;;;;5065387;28;20466;-80
2023/08/26 08:38:30;;;;;;;8.50;7.80;;;23.50;99.90;;;;;;5059876;28;20474;-79
2023/08/26 08:40:58;;;;;;;7.77;7.17;;;23.40;99.90;;;;;;5076215;28;20473;-80
2023/08/26 08:43:27;;;;;;;8.10;7.47;;;23.50;99.90;;;;;;5075813;28;20466;-80
2023/08/26 08:45:54;;;;;;;9.20;8.40;;;23.50;99.90;;;;;;5076481;28;20913;-78
2023/08/26 08:48:22;;;;;;;7.67;7.07;;;23.50;99.90;;;;;;5075624;28;20502;-79
2023/08/26 08:50:49;;;;;;;9.00;8.10;;;23.40;99.90;;;;;;5076339;28;20475;-79
2023/08/26 08:53:23;;;;;;;8.87;8.07;;;23.50;99.90;;;;;;5075968;28;20474;-79
2023/08/26 08:55:51;;;;;;;7.73;7.03;;;23.50;99.90;;;;;;5075968;28;20497;-79
2023/08/26 08:58:18;;;;;;;8.37;7.67;;;23.60;99.90;;;;;;5074812;28;20495;-78
2023/08/26 09:00:45;;;;;;;8.23;7.53;;;23.60;99.90;;;;;;5076320;28;20477;-79
2023/08/26 09:03:13;;;;;;;7.80;7.10;;;23.60;99.90;;;;;;5075615;28;20963;-78
2023/08/26 09:05:40;;;;;;;7.40;6.80;;;23.60;99.90;;;;;;5076333;28;20462;-79
2023/08/26 09:08:09;;;;;;;8.57;7.77;;;23.70;99.90;;;;;;5075502;28;20462;-79
2023/08/26 09:10:38;;;;;;;7.23;6.30;;;23.70;99.90;;;;;;5075790;28;20515;-79
2023/08/26 09:13:05;;;;;;;6.93;6.33;;;23.80;99.90;;;;;;5075147;28;20987;-78
2023/08/26 09:15:32;;;;;;;6.97;6.47;;;23.80;99.90;;;;;;5076065;28;20520;-79
2023/08/26 09:18:02;;;;;;;6.67;6.07;;;23.90;99.90;;;;;;5075610;28;20466;-78
2023/08/26 09:20:48;;;;;;;6.90;6.30;;;23.90;99.90;;;;;;5074587;28;20473;-79
2023/08/26 09:23:23;;;;;;;5.50;5.10;;;24.00;99.90;;;;;;5074189;28;20480;-79
2023/08/26 09:26:16;;;;;;;6.77;6.17;;;24.10;99.90;;;;;;5056533;28;20473;-78
2023/08/26 09:29:12;;;;;;;6.10;5.60;;;24.20;99.90;;;;;;5066076;28;20839;-79
2023/08/26 09:31:59;;;;;;;5.40;5.00;;;24.30;99.90;;;;;;5063111;28;20458;-79
2023/08/26 09:34:28;;;;;;;5.70;5.30;;;24.30;99.90;;;;;;5074034;28;20473;-78
2023/08/26 09:36:56;;;;;;;8.27;7.43;;;24.30;99.90;;;;;;5075514;28;20458;-79
2023/08/26 09:39:23;;;;;;;8.83;8.00;;;24.40;99.90;;;;;;5075466;28;20473;-78
2023/08/26 09:41:51;;;;;;;7.90;7.30;;;24.40;99.90;;;;;;5074894;28;20442;-79
2023/08/26 09:44:21;;;;;;;8.63;7.80;;;24.50;99.90;;;;;;5074883;28;20470;-79
2023/08/26 09:46:48;;;;;;;8.90;8.00;;;24.50;99.90;;;;;;5074519;28;20454;-79
2023/08/26 09:49:16;;;;;;;10.03;8.20;;;24.50;99.90;;;;;;5075323;28;20485;-79
2023/08/26 09:51:50;;;;;;;8.43;7.70;;;24.50;99.90;;;;;;5074444;28;20470;-79
2023/08/26 09:54:18;;;;;;;9.17;8.47;;;24.60;99.90;;;;;;5074765;28;20475;-79
2023/08/26 09:56:46;;;;;;;10.50;9.53;;;24.70;99.90;;;;;;5074399;28;20471;-79
2023/08/26 09:59:16;;;;;;;9.10;8.27;;;24.80;99.90;;;;;;5075140;28;20459;-79
2023/08/26 10:01:43;;;;;;;9.80;8.90;;;24.80;99.90;;;;;;5074557;28;20784;-79
2023/08/26 10:04:11;;;;;;;9.23;8.30;;;24.90;99.90;;;;;;5075059;28;20899;-79
2023/08/26 10:06:42;;;;;;;9.60;8.80;;;24.90;99.90;;;;;;5074050;28;20504;-78
2023/08/26 10:09:18;;;;;;;8.20;7.40;;;25.00;99.90;;;;;;5074709;28;20454;-78
2023/08/26 10:11:48;;;;;;;8.70;8.00;;;25.00;99.90;;;;;;5074421;28;20547;-79
2023/08/26 10:14:18;;;;;;;10.30;8.37;;;25.00;99.90;;;;;;5074606;28;20570;-78
2023/08/26 10:16:46;;;;;;;9.77;8.87;;;25.00;99.90;;;;;;5074604;28;20478;-80
2023/08/26 10:19:15;;;;;;;9.90;9.00;;;25.10;99.90;;;;;;5075025;28;21025;-79
2023/08/26 10:21:43;;;;;;;9.40;8.60;;;25.20;99.90;;;;;;5073556;28;20467;-79
2023/08/26 10:24:10;;;;;;;11.03;9.73;;;25.30;99.90;;;;;;5074391;28;20939;-79
2023/08/26 10:26:38;;;;;;;11.23;10.13;;;25.30;99.90;;;;;;5073810;28;20481;-80
2023/08/26 10:29:05;;;;;;;9.97;9.17;;;25.40;99.90;;;;;;5074494;28;21032;-79
2023/08/26 10:31:38;;;;;;;10.50;9.50;;;25.50;99.90;;;;;;5074671;28;20520;-80
2023/08/26 10:34:15;;;;;;;9.87;8.90;;;25.60;99.90;;;;;;5073668;28;20566;-79
2023/08/26 10:36:46;;;;;;;10.57;9.67;;;25.60;99.90;;;;;;5073543;28;20472;-79
2023/08/26 10:39:16;;;;;;;10.90;10.00;;;25.70;99.90;;;;;;5074416;28;20485;-79
2023/08/26 10:42:12;;;;;;;9.13;8.53;;;25.70;99.90;;;;;;5073452;28;20466;-79
2023/08/26 10:44:42;;;;;;;9.10;8.40;;;25.70;99.90;;;;;;5072852;28;20572;-80
2023/08/26 10:47:11;;;;;;;8.87;8.17;;;25.80;99.90;;;;;;5074368;28;20541;-80
2023/08/26 10:49:39;;;;;;;10.13;9.27;;;25.80;99.90;;;;;;5073460;28;20963;-78
2023/08/26 10:52:15;;;;;;;9.17;8.37;;;25.80;99.90;;;;;;5073596;28;20555;-80
2023/08/26 10:54:44;;;;;;;9.27;8.57;;;25.90;99.90;;;;;;5073765;28;21093;-79
2023/08/26 10:57:12;;;;;;;8.07;7.50;;;25.90;99.90;;;;;;5074414;28;20463;-79
2023/08/26 10:59:40;;;;;;;8.80;8.10;;;25.90;99.90;;;;;;5074012;28;20466;-79
2023/08/26 11:02:11;;;;;;;9.50;8.77;;;26.00;99.90;;;;;;5074244;28;20480;-80
2023/08/26 11:04:43;;;;;;;7.80;7.20;;;26.00;99.90;;;;;;5062848;28;20497;-81
2023/08/26 11:07:15;;;;;;;8.97;8.27;;;26.10;99.90;;;;;;5057463;28;20550;-80
2023/08/26 11:09:42;;;;;;;8.17;7.47;;;26.20;99.90;;;;;;5073288;28;20496;-81
2023/08/26 11:12:24;;;;;;;9.13;8.27;;;26.20;99.90;;;;;;5073647;28;20475;-80
2023/08/26 11:14:52;;;;;;;8.30;7.57;;;26.30;99.90;;;;;;5073004;28;20472;-80
2023/08/26 11:17:20;;;;;;;8.07;7.37;;;26.30;99.90;;;;;;5073775;28;20801;-80
2023/08/26 11:19:47;;;;;;;6.47;5.97;;;26.40;99.90;;;;;;5071622;28;21008;-80
2023/08/26 11:22:15;;;;;;;8.00;7.40;;;26.40;99.90;;;;;;5073513;28;20470;-80
2023/08/26 11:24:49;;;;;;;7.23;6.70;;;26.50;99.90;;;;;;5072561;28;20459;-80
2023/08/26 11:27:16;;;;;;;6.57;6.07;;;26.50;99.90;;;;;;5073755;28;20542;-80
2023/08/26 11:29:43;;;;;;;6.10;5.70;;;26.60;99.90;;;;;;5072025;28;20467;-79
2023/08/26 11:32:11;;;;;;;6.80;6.30;;;26.60;99.90;;;;;;5073600;28;20502;-79
2023/08/26 11:34:39;;;;;;;6.77;6.13;;;26.60;99.90;;;;;;5073338;28;20469;-80
2023/08/26 11:37:08;;;;;;;6.97;6.47;;;26.70;99.90;;;;;;5073232;28;20466;-79
2023/08/26 11:39:37;;;;;;;6.40;5.90;;;26.70;99.90;;;;;;5073244;28;20472;-79
2023/08/26 11:42:13;;;;;;;5.90;5.40;;;26.70;99.90;;;;;;5072949;28;20445;-79
2023/08/26 11:44:40;;;;;;;6.47;5.97;;;26.80;99.90;;;;;;5073191;28;20473;-80
2023/08/26 11:47:08;;;;;;;5.53;5.13;;;26.80;99.90;;;;;;5072522;28;20516;-79
2023/08/26 11:49:35;;;;;;;6.60;6.00;;;26.80;99.90;;;;;;5073092;28;20504;-81
2023/08/26 11:52:05;;;;;;;4.80;4.30;;;26.80;99.90;;;;;;5072403;28;20534;-79
2023/08/26 11:54:32;;;;;;;5.70;5.20;;;26.80;99.90;;;;;;5074294;28;20987;-79
2023/08/26 11:57:00;;;;;;;5.30;4.73;;;26.70;99.90;;;;;;5076591;28;20472;-79
2023/08/26 11:59:37;;;;;;;5.67;5.37;;;26.70;99.90;;;;;;5077475;28;20572;-80
2023/08/26 12:02:18;;;;;;;5.60;5.20;;;26.80;99.90;;;;;;5076739;28;20467;-80
2023/08/26 12:04:45;;;;;;;5.00;4.60;;;26.90;99.90;;;;;;5076374;28;20489;-79
2023/08/26 12:07:14;;;;;;;6.27;5.80;;;26.80;99.90;;;;;;5076472;28;20849;-79
2023/08/26 12:09:41;;;;;;;4.87;4.37;;;26.90;99.90;;;;;;5077065;28;20463;-80
2023/08/26 12:12:09;;;;;;;6.60;4.90;;;26.90;99.90;;;;;;5076127;28;20465;-81
2023/08/26 12:14:36;;;;;;;5.20;4.80;;;26.90;99.90;;;;;;5077145;28;20480;-79
2023/08/26 12:17:04;;;;;;;6.10;5.57;;;26.90;99.90;;;;;;5064203;28;20542;-82
2023/08/26 12:19:32;;;;;;;6.60;4.97;;;26.90;99.90;;;;;;5062600;28;20472;-81
2023/08/26 12:22:00;;;;;;;4.83;4.53;;;26.90;99.90;;;;;;5076038;28;20492;-80
2023/08/26 12:24:28;;;;;;;5.83;5.33;;;26.90;99.90;;;;;;5076662;28;20484;-80
2023/08/26 12:26:55;;;;;;;5.23;4.83;;;26.80;99.90;;;;;;5075741;28;20527;-80
2023/08/26 12:29:22;;;;;;;4.80;4.50;;;26.70;99.90;;;;;;5076332;28;20562;-80
2023/08/26 12:31:51;;;;;;;4.90;4.50;;;26.70;99.90;;;;;;5076117;28;20478;-79
2023/08/26 12:34:18;;;;;;;5.00;4.60;;;26.70;99.90;;;;;;5076634;28;20530;-79
2023/08/26 12:36:46;;;;;;;5.07;4.77;;;26.70;99.90;;;;;;5076164;28;20868;-78
2023/08/26 12:39:13;;;;;;;5.20;4.80;;;26.70;99.90;;;;;;5075902;28;20464;-78
2023/08/26 12:41:41;;;;;;;5.17;4.77;;;26.70;99.90;;;;;;5076486;28;20472;-80
2023/08/26 12:44:08;;;;;;;6.30;4.53;;;26.70;99.90;;;;;;5075879;28;20496;-79
2023/08/26 12:46:38;;;;;;;5.10;4.70;;;26.70;99.90;;;;;;5076037;28;20475;-79
2023/08/26 12:49:05;;;;;;;4.70;4.40;;;26.80;99.90;;;;;;5076078;28;20474;-80
2023/08/26 12:51:32;;;;;;;5.50;5.10;;;26.80;99.90;;;;;;5076116;28;20986;-79
2023/08/26 12:53:59;;;;;;;5.33;4.67;;;26.70;99.90;;;;;;5075491;28;20464;-79
2023/08/26 12:56:28;;;;;;;4.97;4.57;;;26.80;99.90;;;;;;5075741;28;20473;-79
2023/08/26 12:58:57;;;;;;;5.10;4.53;;;26.80;99.90;;;;;;5075469;28;20471;-81
2023/08/26 13:01:26;;;;;;;4.93;4.63;;;26.80;99.90;;;;;;5075976;28;20499;-79
2023/08/26 13:04:39;;;;;;;5.03;4.73;;;26.80;99.90;;;;;;5075076;28;20473;-80
2023/08/26 13:07:16;;;;;;;6.30;5.80;;;26.80;99.90;;;;;;5073793;28;20473;-79
2023/08/26 13:09:55;;;;;;;4.80;4.23;;;26.80;99.90;;;;;;5075054;28;20464;-79
2023/08/26 13:12:24;;;;;;;4.70;4.30;;;26.80;99.90;;;;;;5070143;28;20502;-80